createdAt,value
2022-12-08T00:00:08.781Z,0.22
2022-12-08T00:02:39.911Z,0.13
2022-12-08T00:05:09.202Z,0.13
2022-12-08T00:07:38.919Z,0.34
2022-12-08T00:10:39.583Z,0.10
2022-12-08T00:12:55.494Z,0.23
2022-12-08T00:15:23.109Z,0.26
2022-12-08T00:17:50.854Z,0.34
2022-12-08T00:20:18.782Z,0.26
2022-12-08T00:22:46.400Z,0.37
2022-12-08T00:25:14.945Z,0.41
2022-12-08T00:27:43.091Z,0.38
2022-12-08T00:30:11.311Z,0.42
2022-12-08T00:32:38.933Z,0.34
2022-12-08T00:35:07.906Z,0.26
2022-12-08T00:37:35.633Z,0.27
2022-12-08T00:40:05.874Z,0.29
2022-12-08T00:42:34.276Z,0.25
2022-12-08T00:45:01.843Z,0.13
2022-12-08T00:47:30.197Z,0.02
2022-12-08T00:49:58.248Z,0.07
2022-12-08T00:52:26.249Z,0.11
2022-12-08T00:54:53.871Z,0.11
2022-12-08T00:57:22.662Z,0.02
2022-12-08T00:59:50.384Z,0.10
2022-12-08T01:02:18.048Z,0.07
2022-12-08T01:04:46.142Z,0.06
2022-12-08T01:07:13.679Z,0.15
2022-12-08T01:09:41.373Z,0.32
2022-12-08T01:12:09.741Z,0.13
2022-12-08T01:14:37.600Z,0.12
2022-12-08T01:17:05.158Z,0.06
2022-12-08T01:19:33.169Z,0.08
2022-12-08T01:22:00.836Z,0.10
2022-12-08T01:24:28.670Z,0.12
2022-12-08T01:26:56.766Z,0.07
2022-12-08T01:29:24.584Z,0.14
2022-12-08T01:31:52.279Z,0.21
2022-12-08T01:34:20.160Z,0.19
2022-12-08T01:36:47.958Z,0.22
2022-12-08T01:39:17.817Z,0.22
2022-12-08T01:41:46.752Z,0.21
2022-12-08T01:44:14.224Z,0.06
2022-12-08T01:46:43.410Z,-0.11
2022-12-08T01:49:18.509Z,0.02
2022-12-08T01:52:11.098Z,-0.14
2022-12-08T01:55:02.749Z,-0.11
2022-12-08T01:57:56.437Z,-0.05
2022-12-08T02:00:24.680Z,-0.09
2022-12-08T02:02:53.909Z,-0.14
2022-12-08T02:05:25.025Z,-0.01
2022-12-08T02:07:53.531Z,-0.04
2022-12-08T02:10:22.514Z,0.01
2022-12-08T02:12:52.102Z,0.22
2022-12-08T02:15:24.913Z,-0.14
2022-12-08T02:18:16.241Z,-0.15
2022-12-08T02:20:55.019Z,-0.15
2022-12-08T02:23:51.920Z,-0.11
2022-12-08T02:26:31.629Z,0.05
2022-12-08T02:29:34.283Z,0.11
2022-12-08T02:32:57.376Z,0.21
2022-12-08T02:35:27.866Z,0.18
2022-12-08T02:38:14.402Z,0.21
2022-12-08T02:40:59.486Z,0.10
2022-12-08T02:43:31.971Z,0.05
2022-12-08T02:46:02.852Z,0.03
2022-12-08T02:48:32.921Z,0.11
2022-12-08T02:51:00.627Z,0.12
2022-12-08T02:53:30.581Z,0.13
2022-12-08T02:56:28.839Z,0.21
2022-12-08T02:59:00.599Z,0.26
2022-12-08T03:01:31.513Z,0.42
2022-12-08T03:04:08.458Z,0.41
2022-12-08T03:06:50.573Z,0.53
2022-12-08T03:09:18.082Z,0.61
2022-12-08T03:11:56.804Z,0.89
2022-12-08T03:14:24.983Z,1.43
2022-12-08T03:16:55.581Z,1.46
2022-12-08T03:19:25.803Z,1.57
2022-12-08T03:21:56.043Z,1.59
2022-12-08T03:24:23.673Z,1.00
2022-12-08T03:26:51.276Z,0.79
2022-12-08T03:29:19.399Z,0.32
2022-12-08T03:31:52.345Z,0.27
2022-12-08T03:34:22.459Z,0.08
2022-12-08T03:36:50.097Z,0.12
2022-12-08T03:39:18.302Z,0.35
2022-12-08T03:41:47.497Z,0.56
2022-12-08T03:44:15.090Z,0.50
2022-12-08T03:46:42.708Z,0.50
2022-12-08T03:49:10.747Z,0.45
2022-12-08T03:51:38.420Z,0.46
2022-12-08T03:54:06.075Z,0.51
2022-12-08T03:56:37.064Z,0.59
2022-12-08T03:59:05.699Z,0.60
2022-12-08T04:01:33.915Z,0.62
2022-12-08T04:04:02.082Z,0.71
2022-12-08T04:06:29.693Z,0.84
2022-12-08T04:08:57.419Z,0.84
2022-12-08T04:11:25.555Z,0.82
2022-12-08T04:13:53.283Z,0.84
2022-12-08T04:16:23.328Z,0.87
2022-12-08T04:18:51.613Z,0.92
2022-12-08T04:21:19.511Z,1.00
2022-12-08T04:23:47.279Z,0.92
2022-12-08T04:26:15.688Z,1.34
2022-12-08T04:28:43.837Z,1.76
2022-12-08T04:31:11.565Z,1.16
2022-12-08T04:33:39.548Z,1.63
2022-12-08T04:36:07.912Z,1.87
2022-12-08T04:38:35.530Z,1.94
2022-12-08T04:41:03.698Z,2.05
2022-12-08T04:43:31.255Z,2.08
2022-12-08T04:45:58.885Z,2.09
2022-12-08T04:48:27.153Z,2.12
2022-12-08T04:50:54.725Z,2.14
2022-12-08T04:53:22.361Z,2.29
2022-12-08T04:55:50.414Z,2.18
2022-12-08T04:58:19.203Z,2.21
2022-12-08T05:00:47.315Z,2.28
2022-12-08T05:03:15.819Z,2.21
2022-12-08T05:05:43.910Z,2.38
2022-12-08T05:08:11.880Z,2.27
2022-12-08T05:10:39.965Z,2.28
2022-12-08T05:13:07.592Z,2.44
2022-12-08T05:15:35.268Z,2.34
2022-12-08T05:18:05.509Z,2.31
2022-12-08T05:20:33.871Z,1.65
2022-12-08T05:23:01.610Z,1.59
2022-12-08T05:25:29.667Z,1.65
2022-12-08T05:28:17.651Z,1.71
2022-12-08T05:30:45.193Z,1.67
2022-12-08T05:33:12.977Z,1.71
2022-12-08T05:35:40.587Z,1.81
2022-12-08T05:38:08.855Z,1.63
2022-12-08T05:40:39.863Z,1.77
2022-12-08T05:43:07.678Z,1.65
2022-12-08T05:45:35.593Z,1.63
2022-12-08T05:48:03.594Z,1.57
2022-12-08T05:50:31.154Z,1.63
2022-12-08T05:52:59.110Z,1.62
2022-12-08T05:55:26.803Z,1.63
2022-12-08T05:57:54.370Z,1.62
2022-12-08T06:00:22.324Z,1.68
2022-12-08T06:02:50.258Z,1.67
2022-12-08T06:05:17.982Z,1.76
2022-12-08T06:07:46.303Z,1.76
2022-12-08T06:10:14.247Z,1.73
2022-12-08T06:12:41.858Z,1.87
2022-12-08T06:15:09.821Z,1.79
2022-12-08T06:17:40.511Z,1.74
2022-12-08T06:20:08.222Z,1.74
2022-12-08T06:22:36.780Z,1.77
2022-12-08T06:25:09.546Z,1.78
2022-12-08T06:27:37.692Z,1.84
2022-12-08T06:30:07.071Z,1.75
2022-12-08T06:32:34.921Z,1.76
2022-12-08T06:35:02.629Z,1.85
2022-12-08T06:37:30.459Z,1.94
2022-12-08T06:39:58.237Z,1.93
2022-12-08T06:42:25.962Z,2.01
2022-12-08T06:44:53.836Z,2.07
2022-12-08T06:47:26.034Z,2.08
2022-12-08T06:49:54.982Z,2.06
2022-12-08T06:52:22.634Z,2.15
2022-12-08T06:54:50.388Z,2.18
2022-12-08T06:57:18.295Z,2.24
2022-12-08T06:59:45.921Z,2.19
2022-12-08T07:02:13.978Z,2.27
2022-12-08T07:04:41.923Z,2.27
2022-12-08T07:07:09.939Z,2.49
2022-12-08T07:09:37.568Z,2.41
2022-12-08T07:12:05.846Z,2.42
2022-12-08T07:14:33.540Z,2.46
2022-12-08T07:17:01.146Z,2.47
2022-12-08T07:19:29.459Z,2.55
2022-12-08T07:21:57.138Z,2.65
2022-12-08T07:24:24.732Z,2.66
2022-12-08T07:26:53.130Z,2.75
2022-12-08T07:29:26.034Z,2.74
2022-12-08T07:31:54.309Z,2.80
2022-12-08T07:34:21.942Z,2.93
2022-12-08T07:36:49.519Z,3.07
2022-12-08T07:39:17.453Z,2.94
2022-12-08T07:41:45.034Z,2.93
2022-12-08T07:44:12.810Z,3.17
2022-12-08T07:46:40.797Z,3.03
2022-12-08T07:49:08.485Z,3.05
2022-12-08T07:51:36.223Z,3.17
2022-12-08T07:54:04.150Z,3.24
2022-12-08T07:56:31.882Z,3.42
2022-12-08T07:59:01.163Z,3.33
2022-12-08T08:01:31.462Z,3.17
2022-12-08T08:04:01.677Z,3.33
2022-12-08T08:06:29.521Z,3.44
2022-12-08T08:08:57.345Z,3.44
2022-12-08T08:11:25.486Z,3.46
2022-12-08T08:13:53.306Z,3.49
2022-12-08T08:16:21.278Z,3.76
2022-12-08T08:18:50.327Z,3.80
2022-12-08T08:24:06.779Z,4.22
2022-12-08T08:26:34.640Z,4.19
2022-12-08T08:29:02.678Z,4.35
2022-12-08T08:31:30.491Z,4.24
2022-12-08T08:33:58.223Z,4.36
2022-12-08T08:36:25.884Z,4.28
2022-12-08T08:38:54.104Z,4.16
2022-12-08T08:41:22.694Z,4.19
2022-12-08T08:43:57.722Z,4.56
2022-12-08T08:46:25.711Z,4.48
2022-12-08T08:48:53.537Z,4.59
2022-12-08T08:51:21.317Z,4.36
2022-12-08T08:54:25.250Z,4.53
2022-12-08T08:56:52.958Z,4.15
2022-12-08T08:59:20.943Z,4.15
2022-12-08T09:01:48.836Z,4.15
2022-12-08T09:04:16.789Z,4.37
2022-12-08T09:06:44.694Z,4.19
2022-12-08T09:09:16.878Z,4.25
2022-12-08T09:11:45.401Z,4.18
2022-12-08T09:14:19.057Z,4.26
2022-12-08T09:16:47.310Z,3.98
2022-12-08T09:19:15.156Z,3.88
2022-12-08T09:21:44.311Z,4.03
2022-12-08T09:24:13.905Z,4.04
2022-12-08T09:26:42.735Z,3.80
2022-12-08T09:29:11.368Z,3.89
2022-12-08T09:31:39.370Z,3.95
2022-12-08T09:34:07.544Z,3.82
2022-12-08T09:36:35.355Z,3.75
2022-12-08T09:39:03.859Z,3.86
2022-12-08T09:41:48.289Z,3.99
2022-12-08T09:44:35.774Z,3.91
2022-12-08T09:47:06.698Z,3.91
2022-12-08T09:49:41.173Z,3.99
2022-12-08T09:52:50.156Z,3.72
2022-12-08T09:55:24.838Z,3.74
2022-12-08T09:58:00.977Z,3.62
2022-12-08T10:00:30.972Z,3.66
2022-12-08T10:02:59.492Z,3.87
2022-12-08T10:05:28.380Z,3.73
2022-12-08T10:08:08.554Z,3.71
2022-12-08T10:10:42.964Z,3.67
2022-12-08T10:13:38.017Z,3.96
2022-12-08T10:16:30.904Z,3.83
2022-12-08T10:19:16.042Z,3.91
2022-12-08T10:21:44.285Z,3.93
2022-12-08T10:24:34.947Z,3.94
2022-12-08T10:27:03.550Z,4.29
2022-12-08T10:29:31.191Z,4.37
2022-12-08T10:31:59.682Z,4.51
2022-12-08T10:34:27.791Z,4.38
2022-12-08T10:36:57.746Z,4.39
2022-12-08T10:39:41.839Z,4.20
2022-12-08T10:42:18.857Z,4.58
2022-12-08T10:44:59.345Z,4.49
2022-12-08T10:47:28.249Z,4.57
2022-12-08T10:50:26.884Z,4.76
2022-12-08T10:53:01.039Z,4.63
2022-12-08T10:55:29.736Z,4.70
2022-12-08T10:57:57.681Z,4.58
2022-12-08T11:00:27.052Z,4.22
2022-12-08T11:03:00.683Z,4.51
2022-12-08T11:05:33.603Z,4.48
2022-12-08T11:08:04.767Z,4.46
2022-12-08T11:10:37.907Z,4.67
2022-12-08T11:13:07.170Z,4.47
2022-12-08T11:15:38.316Z,4.64
2022-12-08T11:18:22.427Z,4.63
2022-12-08T11:21:06.518Z,4.41
2022-12-08T11:23:36.454Z,4.49
2022-12-08T11:26:28.342Z,4.40
2022-12-08T11:28:57.044Z,4.74
2022-12-08T11:31:29.601Z,4.52
2022-12-08T11:33:57.502Z,4.50
2022-12-08T11:36:27.501Z,4.46
2022-12-08T11:39:01.122Z,4.55
2022-12-08T11:41:37.697Z,4.61
2022-12-08T11:44:22.266Z,4.59
2022-12-08T11:46:55.406Z,4.50
2022-12-08T11:49:29.200Z,4.38
2022-12-08T11:52:06.081Z,4.44
2022-12-08T11:55:06.886Z,4.09
2022-12-08T11:57:34.862Z,4.39
2022-12-08T12:00:03.321Z,4.58
2022-12-08T12:02:45.882Z,4.29
2022-12-08T12:08:44.369Z,4.67
2022-12-08T12:11:33.669Z,4.18
2022-12-08T12:14:15.503Z,4.29
2022-12-08T12:17:02.244Z,4.44
2022-12-08T12:19:40.842Z,4.47
2022-12-08T12:22:15.467Z,4.32
2022-12-08T12:24:48.463Z,4.44
2022-12-08T12:27:16.476Z,4.52
2022-12-08T12:29:52.225Z,4.46
2022-12-08T12:32:23.576Z,4.48
2022-12-08T12:34:54.434Z,4.54
2022-12-08T12:37:27.768Z,4.61
2022-12-08T12:39:59.789Z,4.60
2022-12-08T12:42:48.884Z,4.75
2022-12-08T12:45:16.734Z,4.61
2022-12-08T12:47:57.167Z,4.50
2022-12-08T12:50:34.161Z,4.57
2022-12-08T12:53:12.353Z,4.51
2022-12-08T12:56:01.312Z,4.59
2022-12-08T12:58:29.408Z,4.58
2022-12-08T13:01:12.958Z,4.71
2022-12-08T13:04:05.480Z,4.58
2022-12-08T13:06:45.873Z,4.58
2022-12-08T13:09:24.646Z,4.51
2022-12-08T13:11:58.078Z,4.48
2022-12-08T13:14:38.818Z,4.40
2022-12-08T13:17:12.515Z,4.34
2022-12-08T13:19:40.795Z,4.30
2022-12-08T13:22:47.051Z,4.31
2022-12-08T13:25:39.839Z,4.52
2022-12-08T13:28:28.061Z,4.26
2022-12-08T13:31:03.182Z,4.24
2022-12-08T13:33:39.562Z,4.31
2022-12-08T13:36:21.468Z,4.31
2022-12-08T13:38:54.693Z,4.15
2022-12-08T13:41:32.717Z,4.09
2022-12-08T13:45:18.085Z,4.19
2022-12-08T13:47:31.660Z,3.86
2022-12-08T13:59:07.930Z,3.67
2022-12-08T14:01:44.573Z,3.73
2022-12-08T14:07:04.605Z,3.47
2022-12-08T14:09:37.750Z,3.43
2022-12-08T14:12:20.718Z,3.58
2022-12-08T14:15:02.958Z,3.59
2022-12-08T14:17:32.618Z,3.35
2022-12-08T14:20:31.192Z,3.29
2022-12-08T14:22:59.140Z,3.19
2022-12-08T14:25:31.444Z,3.27
2022-12-08T14:28:00.550Z,3.32
2022-12-08T14:30:31.955Z,3.18
2022-12-08T14:33:01.326Z,3.26
2022-12-08T14:35:37.484Z,3.23
2022-12-08T14:38:13.485Z,3.15
2022-12-08T14:41:01.586Z,3.11
2022-12-08T14:43:30.702Z,3.23
2022-12-08T14:46:04.402Z,3.07
2022-12-08T14:48:31.975Z,3.05
2022-12-08T14:51:19.201Z,3.21
2022-12-08T14:53:55.669Z,3.21
2022-12-08T14:56:25.059Z,3.07
2022-12-08T14:59:32.224Z,3.09
2022-12-08T15:02:17.090Z,3.15
2022-12-08T15:04:46.975Z,3.15
2022-12-08T15:07:26.425Z,3.19
2022-12-08T15:10:27.727Z,3.10
2022-12-08T15:13:20.590Z,3.27
2022-12-08T15:15:57.721Z,3.16
2022-12-08T15:18:34.763Z,3.17
2022-12-08T15:21:04.544Z,3.16
2022-12-08T15:23:44.752Z,3.11
2022-12-08T15:26:23.452Z,3.04
2022-12-08T15:28:51.911Z,3.11
2022-12-08T15:31:19.706Z,3.15
2022-12-08T15:33:48.276Z,3.06
2022-12-08T15:36:16.253Z,3.14
2022-12-08T15:38:43.858Z,3.11
2022-12-08T15:41:15.356Z,2.99
2022-12-08T15:43:43.359Z,3.17
2022-12-08T15:46:11.896Z,3.19
2022-12-08T15:48:39.664Z,3.05
2022-12-08T15:51:08.914Z,3.11
2022-12-08T15:53:36.483Z,3.16
2022-12-08T15:58:57.391Z,3.06
2022-12-08T16:01:26.729Z,3.14
2022-12-08T16:04:47.761Z,3.14
2022-12-08T16:09:50.347Z,3.27
2022-12-08T16:12:35.478Z,3.42
2022-12-08T16:18:03.619Z,3.46
2022-12-08T16:21:05.437Z,3.22
2022-12-08T16:23:41.733Z,3.25
2022-12-08T16:26:44.151Z,3.15
2022-12-08T16:29:05.639Z,3.08
2022-12-08T16:31:33.796Z,3.26
2022-12-08T16:34:01.605Z,3.26
2022-12-08T16:36:29.858Z,3.31
2022-12-08T16:38:57.756Z,3.27
2022-12-08T16:41:25.732Z,3.36
2022-12-08T16:43:53.332Z,3.24
2022-12-08T16:46:21.638Z,3.29
2022-12-08T16:48:51.708Z,3.28
2022-12-08T16:51:26.524Z,3.48
2022-12-08T16:53:55.555Z,3.23
2022-12-08T16:56:27.514Z,3.38
2022-12-08T16:58:56.823Z,3.37
2022-12-08T17:01:24.565Z,3.38
2022-12-08T17:04:22.571Z,3.33
2022-12-08T17:06:41.533Z,3.39
2022-12-08T17:09:09.234Z,3.25
2022-12-08T17:11:42.873Z,3.43
2022-12-08T17:14:12.891Z,3.44
2022-12-08T17:16:41.227Z,3.67
2022-12-08T17:19:09.620Z,3.61
2022-12-08T17:21:37.833Z,3.66
2022-12-08T17:24:09.674Z,3.76
2022-12-08T17:26:39.938Z,3.63
2022-12-08T17:29:08.028Z,3.65
2022-12-08T17:31:35.765Z,3.64
2022-12-08T17:34:05.834Z,3.51
2022-12-08T17:36:33.559Z,3.37
2022-12-08T17:39:03.714Z,3.43
2022-12-08T17:41:35.545Z,3.30
2022-12-08T17:44:03.393Z,3.34
2022-12-08T17:46:31.273Z,3.25
2022-12-08T17:48:59.186Z,3.22
2022-12-08T17:51:27.242Z,3.06
2022-12-08T17:53:55.149Z,3.15
2022-12-08T17:56:25.050Z,3.06
2022-12-08T17:58:54.953Z,3.12
2022-12-08T18:01:24.131Z,3.22
2022-12-08T18:03:52.426Z,3.17
2022-12-08T18:06:20.529Z,3.05
2022-12-08T18:08:48.191Z,3.10
2022-12-08T18:11:18.922Z,3.28
2022-12-08T18:13:47.792Z,3.50
2022-12-08T18:16:16.251Z,3.21
2022-12-08T18:18:44.290Z,3.20
2022-12-08T18:21:12.142Z,3.35
2022-12-08T18:23:41.540Z,3.48
2022-12-08T18:26:11.769Z,3.44
2022-12-08T18:28:39.536Z,3.28
2022-12-08T18:31:09.188Z,3.35
2022-12-08T18:33:37.814Z,3.29
2022-12-08T18:36:08.357Z,3.31
2022-12-08T18:38:36.870Z,3.29
2022-12-08T18:41:10.535Z,3.32
2022-12-08T18:43:38.333Z,3.46
2022-12-08T18:46:09.310Z,3.46
2022-12-08T18:48:39.251Z,3.29
2022-12-08T18:51:11.403Z,3.33
2022-12-08T18:53:39.661Z,3.21
2022-12-08T18:56:08.237Z,3.39
2022-12-08T18:58:36.942Z,3.32
2022-12-08T19:01:05.081Z,3.19
2022-12-08T19:03:33.916Z,3.36
2022-12-08T19:06:04.931Z,3.35
2022-12-08T19:08:33.495Z,3.22
2022-12-08T19:11:01.464Z,3.24
2022-12-08T19:13:29.991Z,3.09
2022-12-08T19:15:58.189Z,2.88
2022-12-08T19:18:26.088Z,2.85
2022-12-08T19:20:56.195Z,2.90
2022-12-08T19:23:24.094Z,2.87
2022-12-08T19:25:52.250Z,2.95
2022-12-08T19:28:20.316Z,2.87
2022-12-08T19:30:48.429Z,2.88
2022-12-08T19:33:16.587Z,2.93
2022-12-08T19:35:49.055Z,2.87
2022-12-08T19:38:20.464Z,2.77
2022-12-08T19:40:48.302Z,2.86
2022-12-08T19:43:17.738Z,2.86
2022-12-08T19:45:46.393Z,2.98
2022-12-08T19:48:14.466Z,2.89
2022-12-08T19:50:42.562Z,2.92
2022-12-08T19:53:13.133Z,2.92
2022-12-08T19:55:42.275Z,3.00
2022-12-08T19:58:10.673Z,2.98
2022-12-08T20:00:42.577Z,2.84
2022-12-08T20:03:15.035Z,2.73
2022-12-08T20:05:43.514Z,2.80
2022-12-08T20:08:12.101Z,2.82
2022-12-08T20:10:42.746Z,2.94
2022-12-08T20:13:11.819Z,2.86
2022-12-08T20:15:40.675Z,2.99
2022-12-08T20:18:10.655Z,2.89
2022-12-08T20:20:39.804Z,2.82
2022-12-08T20:23:08.318Z,2.92
2022-12-08T20:25:40.898Z,3.02
2022-12-08T20:28:09.485Z,2.85
2022-12-08T20:30:41.441Z,2.69
2022-12-08T20:33:13.261Z,2.87
2022-12-08T20:35:41.113Z,2.96
2022-12-08T20:38:09.941Z,3.06
2022-12-08T20:40:42.224Z,2.86
2022-12-08T20:43:10.559Z,2.93
2022-12-08T20:45:38.470Z,3.03
2022-12-08T20:48:06.476Z,2.85
2022-12-08T20:50:34.704Z,2.86
2022-12-08T20:53:02.549Z,2.87
2022-12-08T20:55:30.632Z,2.91
2022-12-08T20:57:58.841Z,3.03
2022-12-08T21:00:26.923Z,3.01
2022-12-08T21:02:56.760Z,2.85
2022-12-08T21:05:25.709Z,2.85
2022-12-08T21:07:53.678Z,3.30
2022-12-08T21:10:21.603Z,3.66
2022-12-08T21:12:49.524Z,3.66
2022-12-08T21:15:17.327Z,3.72
2022-12-08T21:17:45.258Z,3.72
2022-12-08T21:20:13.346Z,3.80
2022-12-08T21:22:40.997Z,3.71
2022-12-08T21:25:09.180Z,3.73
2022-12-08T21:27:37.785Z,3.63
2022-12-08T21:30:08.243Z,4.09
2022-12-08T21:32:38.233Z,3.89
2022-12-08T21:35:06.839Z,4.08
2022-12-08T21:37:34.501Z,3.97
2022-12-08T21:40:02.560Z,3.46
2022-12-08T21:42:34.081Z,3.17
2022-12-08T21:45:02.428Z,3.23
2022-12-08T21:47:31.212Z,2.91
2022-12-08T21:49:59.122Z,3.18
2022-12-08T21:52:26.951Z,2.92
2022-12-08T21:54:55.160Z,3.39
2022-12-08T21:57:23.070Z,3.57
2022-12-08T21:59:50.932Z,3.64
2022-12-08T22:02:22.337Z,3.55
2022-12-08T22:04:51.174Z,3.65
2022-12-08T22:07:21.093Z,3.75
2022-12-08T22:09:49.179Z,3.54
2022-12-08T22:12:17.578Z,3.53
2022-12-08T22:14:45.376Z,3.50
2022-12-08T22:17:13.037Z,3.46
2022-12-08T22:19:41.393Z,3.45
2022-12-08T22:22:09.117Z,3.67
2022-12-08T22:24:36.813Z,3.62
2022-12-08T22:27:04.785Z,3.81
2022-12-08T22:29:32.369Z,3.81
2022-12-08T22:32:00.213Z,3.87
2022-12-08T22:34:28.360Z,3.75
2022-12-08T22:36:56.122Z,3.76
2022-12-08T22:39:23.983Z,3.68
2022-12-08T22:41:52.012Z,3.67
2022-12-08T22:44:23.670Z,3.79
2022-12-08T22:46:51.363Z,3.77
2022-12-08T22:49:19.318Z,3.83
2022-12-08T22:51:46.884Z,3.80
2022-12-08T22:54:14.415Z,3.76
2022-12-08T22:56:42.345Z,3.76
2022-12-08T22:59:10.153Z,3.62
2022-12-08T23:01:37.868Z,3.84
2022-12-08T23:04:05.979Z,3.83
2022-12-08T23:06:33.900Z,3.84
2022-12-08T23:09:02.446Z,3.76
2022-12-08T23:11:31.350Z,3.97
2022-12-08T23:13:59.852Z,3.90
2022-12-08T23:16:28.306Z,3.86
2022-12-08T23:18:56.707Z,4.06
2022-12-08T23:21:24.380Z,3.89
2022-12-08T23:23:52.660Z,4.01
2022-12-08T23:26:26.196Z,3.89
2022-12-08T23:28:54.520Z,4.06
2022-12-08T23:31:23.152Z,3.89
2022-12-08T23:33:51.562Z,3.98
2022-12-08T23:36:20.439Z,3.88
2022-12-08T23:38:49.203Z,4.04
2022-12-08T23:41:17.822Z,4.25
2022-12-08T23:43:50.016Z,4.00
2022-12-08T23:46:21.313Z,4.00
2022-12-08T23:48:50.526Z,4.16
2022-12-08T23:51:19.083Z,4.23
2022-12-08T23:53:46.945Z,4.13
2022-12-08T23:56:16.887Z,4.25
2022-12-08T23:58:45.186Z,4.13
